Time;durP1;ratioP1;P1;durP2;ratioP2;P2;SDS_P1;SDS_P2;PMS_P1;PMS_P2;Temp;Humidity;BMP_temperature;BMP_pressure;BME280_temperature;BME280_humidity;BME280_pressure;Samples;Min_cycle;Max_cycle;Signal;HPM_P1;HPM_P2
2021/09/28 00:01:02;;;;;;;29.15;15.57;;;;;19.10;100542.00;;;;4816528;29;20130;-76
2021/09/28 00:03:31;;;;;;;23.98;12.77;;;;;19.00;100546.00;;;;4818590;29;20050;-75
2021/09/28 00:06:00;;;;;;;32.08;14.63;;;;;18.90;100551.00;;;;4818416;29;20054;-76
2021/09/28 00:08:30;;;;;;;31.63;15.88;;;;;18.80;100560.00;;;;4818922;29;20050;-76
2021/09/28 00:10:59;;;;;;;29.90;14.52;;;;;18.80;100560.00;;;;4816735;29;20619;-76
2021/09/28 00:13:29;;;;;;;33.35;14.13;;;;;18.60;100564.00;;;;4818224;29;20074;-76
2021/09/28 00:15:58;;;;;;;32.35;14.38;;;;;18.60;100546.00;;;;4818352;29;20046;-77
2021/09/28 00:18:28;;;;;;;39.60;16.90;;;;;18.60;100552.00;;;;4818757;29;20552;-75
2021/09/28 00:20:58;;;;;;;29.40;16.20;;;;;18.50;100569.00;;;;4818137;29;20062;-75
2021/09/28 00:23:28;;;;;;;33.15;16.45;;;;;18.50;100570.00;;;;4817794;29;20050;-75
2021/09/28 00:25:57;;;;;;;27.42;14.88;;;;;18.40;100564.00;;;;4816852;29;20065;-75
2021/09/28 00:28:28;;;;;;;35.60;16.27;;;;;18.40;100565.00;;;;4817286;29;20050;-74
2021/09/28 00:30:58;;;;;;;25.58;14.23;;;;;18.40;100568.00;;;;4822488;29;20046;-73
2021/09/28 00:33:28;;;;;;;32.05;15.55;;;;;18.30;100547.00;;;;4802843;29;20056;-75
2021/09/28 00:35:58;;;;;;;33.65;15.25;;;;;18.30;100555.00;;;;4817855;29;20143;-75
2021/09/28 00:38:27;;;;;;;31.88;17.30;;;;;18.30;100566.00;;;;4802422;29;20061;-76
2021/09/28 00:40:58;;;;;;;35.65;18.45;;;;;18.20;100558.00;;;;4818712;29;20070;-76
2021/09/28 00:43:44;;;;;;;29.60;16.63;;;;;18.20;100537.00;;;;4818352;29;20133;-76
2021/09/28 00:46:14;;;;;;;30.95;17.55;;;;;18.20;100541.00;;;;4818174;29;20078;-75
2021/09/28 00:48:46;;;;;;;32.88;16.50;;;;;18.10;100539.00;;;;4818416;29;20042;-76
2021/09/28 00:51:17;;;;;;;32.67;17.35;;;;;18.10;100546.00;;;;4818553;29;20411;-76
2021/09/28 00:53:52;;;;;;;33.88;16.52;;;;;18.10;100536.00;;;;4820784;29;20051;-77
2021/09/28 00:56:23;;;;;;;36.47;16.13;;;;;18.10;100521.00;;;;4817120;29;20074;-75
2021/09/28 00:58:53;;;;;;;42.17;17.90;;;;;18.00;100529.00;;;;4818393;29;20074;-76
2021/09/28 01:01:22;;;;;;;30.77;16.58;;;;;18.00;100494.00;;;;4817005;29;20054;-78
2021/09/28 01:03:52;;;;;;;32.50;16.75;;;;;18.00;100525.00;;;;4816809;29;20058;-76
2021/09/28 01:06:22;;;;;;;34.92;15.93;;;;;18.00;100513.00;;;;4801425;29;20054;-76
2021/09/28 01:08:51;;;;;;;32.67;16.95;;;;;18.00;100520.00;;;;4818184;29;20062;-76
2021/09/28 01:11:21;;;;;;;33.08;15.77;;;;;18.10;100521.00;;;;4817717;29;20047;-74
2021/09/28 01:13:51;;;;;;;16.65;9.75;;;;;18.00;100485.00;;;;4818603;29;20054;-74
2021/09/28 01:16:21;;;;;;;28.85;12.75;;;;;18.00;100527.00;;;;4817859;29;20065;-76
2021/09/28 01:18:51;;;;;;;7.00;3.53;;;;;18.00;100496.00;;;;4817560;29;20126;-75
2021/09/28 01:21:20;;;;;;;35.35;15.85;;;;;18.00;100499.00;;;;4817120;29;20058;-76
2021/09/28 01:23:50;;;;;;;32.72;15.50;;;;;18.00;100505.00;;;;4815345;29;20125;-76
2021/09/28 01:26:24;;;;;;;36.90;13.38;;;;;18.00;100494.00;;;;4816061;29;20462;-76
2021/09/28 01:28:56;;;;;;;26.02;12.95;;;;;17.90;100493.00;;;;4816858;29;20057;-76
2021/09/28 01:31:25;;;;;;;25.63;11.68;;;;;17.90;100487.00;;;;4817450;29;20050;-75
2021/09/28 01:33:55;;;;;;;25.05;12.40;;;;;17.90;100499.00;;;;4817374;29;20589;-76
2021/09/28 01:36:24;;;;;;;24.05;12.77;;;;;17.90;100506.00;;;;4817056;29;20047;-74
2021/09/28 01:38:54;;;;;;;28.45;14.05;;;;;18.00;100484.00;;;;4816561;29;20077;-74
2021/09/28 01:41:24;;;;;;;26.95;14.15;;;;;18.00;100487.00;;;;4815566;29;20077;-75
2021/09/28 01:44:13;;;;;;;32.50;14.95;;;;;17.90;100496.00;;;;4801857;29;20054;-75
2021/09/28 01:46:46;;;;;;;34.78;14.60;;;;;17.90;100482.00;;;;4816228;29;20442;-77
2021/09/28 01:49:17;;;;;;;28.10;14.55;;;;;17.90;100487.00;;;;4817463;29;20065;-76
2021/09/28 01:51:48;;;;;;;31.15;14.88;;;;;17.90;100482.00;;;;4817685;29;20882;-76
2021/09/28 01:54:17;;;;;;;30.73;14.13;;;;;17.80;100482.00;;;;4817166;29;20170;-75
2021/09/28 01:56:46;;;;;;;35.33;14.77;;;;;17.90;100491.00;;;;4817663;29;20047;-75
2021/09/28 01:59:16;;;;;;;26.27;13.85;;;;;17.90;100501.00;;;;4815561;29;20149;-76
2021/09/28 02:01:46;;;;;;;30.80;13.65;;;;;17.80;100511.00;;;;4822452;29;20359;-76
2021/09/28 02:04:15;;;;;;;44.55;16.70;;;;;17.90;100517.00;;;;4841983;29;20385;-76
2021/09/28 02:06:44;;;;;;;33.38;15.50;;;;;17.90;100526.00;;;;4840838;29;20097;-77
2021/09/28 02:09:15;;;;;;;34.42;16.42;;;;;17.80;100498.00;;;;4822372;29;20054;-75
2021/09/28 02:11:44;;;;;;;32.15;14.70;;;;;17.90;100508.00;;;;4820061;29;20061;-75
2021/09/28 02:14:14;;;;;;;31.98;14.02;;;;;17.80;100515.00;;;;4804276;29;20188;-76
2021/09/28 02:16:45;;;;;;;19.77;10.23;;;;;17.70;100500.00;;;;4820269;29;20046;-76
2021/09/28 02:19:15;;;;;;;33.15;14.23;;;;;17.60;100531.00;;;;4820601;29;20871;-76
2021/09/28 02:21:44;;;;;;;31.80;13.45;;;;;17.60;100528.00;;;;4819698;29;20051;-75
2021/09/28 02:24:15;;;;;;;32.45;14.65;;;;;17.60;100523.00;;;;4820227;29;20119;-76
2021/09/28 02:26:45;;;;;;;26.60;11.88;;;;;17.60;100529.00;;;;4820000;29;20077;-74
2021/09/28 02:29:14;;;;;;;33.63;15.93;;;;;17.70;100523.00;;;;4820217;29;20043;-75
2021/09/28 02:31:44;;;;;;;37.78;16.70;;;;;17.70;100524.00;;;;4819953;29;20054;-76
2021/09/28 02:34:13;;;;;;;42.88;17.15;;;;;17.70;100515.00;;;;4818740;29;20085;-77
2021/09/28 02:36:42;;;;;;;38.25;16.30;;;;;17.60;100524.00;;;;4819539;29;20046;-75
2021/09/28 02:39:12;;;;;;;41.47;16.20;;;;;17.60;100526.00;;;;4819559;29;20061;-76
2021/09/28 02:41:42;;;;;;;41.47;16.73;;;;;17.50;100524.00;;;;4819781;29;20465;-75
2021/09/28 02:44:16;;;;;;;37.83;16.15;;;;;17.60;100544.00;;;;4819856;29;20428;-76
2021/09/28 02:46:46;;;;;;;50.05;16.05;;;;;17.60;100529.00;;;;4820500;29;20053;-75
2021/09/28 02:49:16;;;;;;;40.03;16.15;;;;;17.60;100521.00;;;;4819377;29;20133;-76
2021/09/28 02:51:46;;;;;;;34.53;16.65;;;;;17.60;100550.00;;;;4820227;29;20159;-75
2021/09/28 02:54:15;;;;;;;30.02;15.95;;;;;17.50;100530.00;;;;4819657;29;20100;-75
2021/09/28 02:56:45;;;;;;;38.85;15.48;;;;;17.50;100515.00;;;;4819640;29;20053;-76
2021/09/28 02:59:14;;;;;;;37.67;15.40;;;;;17.50;100538.00;;;;4819912;29;20597;-76
2021/09/28 03:01:44;;;;;;;33.05;15.82;;;;;17.50;100514.00;;;;4819580;29;20560;-75
2021/09/28 03:04:14;;;;;;;31.20;13.98;;;;;17.40;100516.00;;;;4819721;29;20129;-74
2021/09/28 03:06:44;;;;;;;28.83;14.85;;;;;17.40;100530.00;;;;4819602;29;20723;-75
2021/09/28 03:09:13;;;;;;;34.33;16.40;;;;;17.40;100542.00;;;;4820000;29;20054;-75
2021/09/28 03:11:43;;;;;;;41.40;17.70;;;;;17.40;100537.00;;;;4819751;29;20054;-77
2021/09/28 03:14:13;;;;;;;28.92;15.95;;;;;17.40;100544.00;;;;4818924;29;20636;-77
2021/09/28 03:16:42;;;;;;;34.13;16.67;;;;;17.40;100525.00;;;;4819266;29;20043;-75
2021/09/28 03:19:12;;;;;;;56.25;22.88;;;;;17.50;100526.00;;;;4818611;29;20141;-75
2021/09/28 03:21:42;;;;;;;65.97;25.02;;;;;17.50;100512.00;;;;4819910;29;20109;-76
2021/09/28 03:24:12;;;;;;;68.07;27.93;;;;;17.60;100515.00;;;;4818914;29;20078;-76
2021/09/28 03:26:41;;;;;;;65.10;26.00;;;;;17.60;100528.00;;;;4818816;29;20319;-76
2021/09/28 03:29:11;;;;;;;78.95;28.67;;;;;17.60;100550.00;;;;4818642;29;20427;-76
2021/09/28 03:31:41;;;;;;;97.18;31.77;;;;;17.70;100544.00;;;;4819064;29;20155;-76
2021/09/28 03:34:10;;;;;;;64.82;25.50;;;;;17.60;100531.00;;;;4819488;29;20071;-75
2021/09/28 03:36:40;;;;;;;72.95;28.35;;;;;17.70;100559.00;;;;4819146;29;20068;-75
2021/09/28 03:39:11;;;;;;;67.03;25.20;;;;;17.60;100554.00;;;;4818891;29;20060;-76
2021/09/28 03:41:40;;;;;;;;;;;;;17.60;100558.00;;;;4819138;29;20062;-76
2021/09/28 03:44:09;;;;;;;93.38;30.52;;;;;17.60;100560.00;;;;4818942;29;19932;-76
2021/09/28 03:46:39;;;;;;;91.38;28.50;;;;;17.50;100564.00;;;;4819625;29;20104;-74
2021/09/28 03:49:08;;;;;;;74.47;26.65;;;;;17.50;100533.00;;;;4818865;29;20046;-76
2021/09/28 03:51:38;;;;;;;70.43;24.58;;;;;17.50;100545.00;;;;4818635;29;20583;-75
2021/09/28 03:54:07;;;;;;;51.72;21.20;;;;;17.40;100532.00;;;;4818801;29;20058;-76
2021/09/28 03:56:36;;;;;;;88.30;30.90;;;;;17.50;100541.00;;;;4818938;29;20046;-76
2021/09/28 03:59:06;;;;;;;88.25;31.83;;;;;17.60;100543.00;;;;4819169;29;20059;-75
2021/09/28 04:01:35;;;;;;;126.85;35.65;;;;;17.80;100544.00;;;;4818662;29;20490;-77
2021/09/28 04:04:05;;;;;;;195.13;42.22;;;;;17.80;100528.00;;;;4818244;29;20051;-76
2021/09/28 04:06:34;;;;;;;180.43;45.20;;;;;17.90;100537.00;;;;4818432;29;20430;-77
2021/09/28 04:09:03;;;;;;;158.90;40.50;;;;;17.90;100528.00;;;;4817104;29;20073;-75
2021/09/28 04:11:33;;;;;;;90.25;36.30;;;;;17.90;100537.00;;;;4818270;29;20133;-75
2021/09/28 04:14:03;;;;;;;83.78;34.85;;;;;18.00;100526.00;;;;4818454;29;20605;-76
2021/09/28 04:16:32;;;;;;;72.22;31.95;;;;;18.00;100543.00;;;;4818607;29;20046;-75
2021/09/28 04:19:02;;;;;;;96.80;33.30;;;;;18.00;100540.00;;;;4801956;29;20073;-76
2021/09/28 04:21:32;;;;;;;69.45;32.78;;;;;18.10;100534.00;;;;4818652;29;20057;-76
2021/09/28 04:24:01;;;;;;;80.53;31.10;;;;;18.00;100540.00;;;;4818934;29;20092;-76
2021/09/28 04:26:32;;;;;;;75.20;28.48;;;;;18.00;100532.00;;;;4817861;29;20061;-77
2021/09/28 04:29:01;;;;;;;86.78;29.17;;;;;18.00;100548.00;;;;4818301;29;20137;-75
2021/09/28 04:31:31;;;;;;;81.38;25.33;;;;;18.10;100545.00;;;;4817576;29;20082;-76
2021/09/28 04:34:00;;;;;;;51.75;20.67;;;;;18.10;100536.00;;;;4818313;29;20103;-76
2021/09/28 04:36:29;;;;;;;60.13;23.85;;;;;18.10;100534.00;;;;4818603;29;20042;-76
2021/09/28 04:38:59;;;;;;;54.95;23.45;;;;;18.10;100556.00;;;;4818300;29;20400;-76
2021/09/28 04:41:28;;;;;;;49.38;20.73;;;;;18.10;100528.00;;;;4818016;29;20054;-77
2021/09/28 04:43:58;;;;;;;45.15;20.38;;;;;18.20;100530.00;;;;4817814;29;20439;-76
2021/09/28 04:46:27;;;;;;;34.80;19.77;;;;;18.20;100540.00;;;;4818514;29;20058;-75
2021/09/28 04:48:56;;;;;;;54.75;23.27;;;;;18.20;100541.00;;;;4818502;29;20058;-76
2021/09/28 04:51:26;;;;;;;35.28;16.48;;;;;18.20;100543.00;;;;4818008;29;20057;-76
2021/09/28 04:53:55;;;;;;;5.32;2.60;;;;;18.20;100531.00;;;;4817919;29;20111;-76
2021/09/28 04:56:25;;;;;;;47.90;18.65;;;;;18.10;100540.00;;;;4816193;29;20059;-76
2021/09/28 04:58:54;;;;;;;45.45;20.50;;;;;18.10;100538.00;;;;4818055;29;20115;-75
2021/09/28 05:01:23;;;;;;;48.22;22.40;;;;;18.10;100534.00;;;;4818250;29;20065;-77
2021/09/28 05:03:53;;;;;;;42.20;21.65;;;;;18.10;100518.00;;;;4817829;29;20161;-76
2021/09/28 05:06:22;;;;;;;50.58;21.83;;;;;18.10;100518.00;;;;4818009;29;20054;-74
2021/09/28 05:08:52;;;;;;;57.38;23.92;;;;;18.00;100530.00;;;;4817683;29;20050;-77
2021/09/28 05:11:22;;;;;;;48.28;22.23;;;;;18.00;100519.00;;;;4817577;29;20054;-76
2021/09/28 05:13:52;;;;;;;50.97;24.40;;;;;18.00;100513.00;;;;4816567;29;20073;-76
2021/09/28 05:16:21;;;;;;;54.80;25.35;;;;;18.00;100539.00;;;;4817702;29;20049;-77
2021/09/28 05:18:51;;;;;;;15.27;9.50;;;;;17.90;100504.00;;;;4818232;29;20122;-76
2021/09/28 05:21:21;;;;;;;59.95;30.38;;;;;17.90;100527.00;;;;4816937;29;20110;-76
2021/09/28 05:23:50;;;;;;;56.05;30.25;;;;;17.90;100523.00;;;;4817314;29;20806;-77
2021/09/28 05:26:20;;;;;;;55.75;28.92;;;;;18.00;100533.00;;;;4817779;29;20077;-76
2021/09/28 05:28:49;;;;;;;59.85;29.42;;;;;18.00;100514.00;;;;4818149;29;20130;-77
2021/09/28 05:31:18;;;;;;;63.55;29.73;;;;;18.00;100521.00;;;;4817893;29;20054;-75
2021/09/28 05:33:48;;;;;;;60.80;30.85;;;;;18.00;100530.00;;;;4801473;29;20063;-76
2021/09/28 05:36:17;;;;;;;60.45;28.65;;;;;18.00;100536.00;;;;4817694;29;20057;-75
2021/09/28 05:38:47;;;;;;;65.43;29.52;;;;;18.00;100496.00;;;;4817565;29;20059;-77
2021/09/28 05:41:17;;;;;;;60.05;28.95;;;;;18.00;100521.00;;;;4800985;29;20133;-76
2021/09/28 05:43:47;;;;;;;58.63;28.90;;;;;18.00;100515.00;;;;4820438;29;20484;-76
2021/09/28 05:46:16;;;;;;;65.05;28.10;;;;;18.00;100516.00;;;;4820588;29;20141;-76
2021/09/28 05:48:46;;;;;;;51.03;26.80;;;;;18.00;100510.00;;;;4819692;29;20109;-76
2021/09/28 05:51:21;;;;;;;58.75;28.90;;;;;18.00;100521.00;;;;4820938;29;20133;-77
2021/09/28 05:53:51;;;;;;;51.17;27.67;;;;;18.00;100523.00;;;;4820959;29;20533;-77
2021/09/28 05:56:21;;;;;;;31.50;17.73;;;;;18.00;100497.00;;;;4821605;29;20542;-76
2021/09/28 05:58:51;;;;;;;34.83;17.50;;;;;18.00;100500.00;;;;4818767;29;20587;-76
2021/09/28 06:01:20;;;;;;;38.15;20.05;;;;;18.00;100485.00;;;;4804939;29;20164;-75
2021/09/28 06:03:50;;;;;;;36.88;20.70;;;;;18.00;100500.00;;;;4819722;29;20431;-77
2021/09/28 06:06:23;;;;;;;31.73;17.35;;;;;18.00;100478.00;;;;4820867;29;20060;-75
2021/09/28 06:08:53;;;;;;;26.27;16.23;;;;;18.00;100508.00;;;;4819948;29;20045;-77
2021/09/28 06:11:22;;;;;;;39.63;19.98;;;;;17.90;100509.00;;;;4820188;29;20057;-76
2021/09/28 06:13:52;;;;;;;44.58;23.70;;;;;17.90;100513.00;;;;4820583;29;20050;-76
2021/09/28 06:16:21;;;;;;;42.10;24.02;;;;;17.90;100497.00;;;;4836185;29;20034;-77
2021/09/28 06:18:51;;;;;;;53.20;26.10;;;;;17.90;100504.00;;;;4845494;29;20046;-77
2021/09/28 06:21:21;;;;;;;53.83;26.25;;;;;17.90;100503.00;;;;4836518;29;20053;-76
2021/09/28 06:23:52;;;;;;;54.30;26.85;;;;;17.90;100516.00;;;;4819995;29;20066;-75
2021/09/28 06:26:22;;;;;;;57.78;27.13;;;;;17.90;100515.00;;;;4820516;29;20129;-76
2021/09/28 06:28:51;;;;;;;41.83;22.45;;;;;17.90;100498.00;;;;4820785;29;20057;-75
2021/09/28 06:31:21;;;;;;;52.22;24.20;;;;;17.90;100514.00;;;;4818607;29;20058;-76
2021/09/28 06:33:51;;;;;;;45.00;23.77;;;;;17.90;100515.00;;;;4819884;29;20346;-77
2021/09/28 06:36:20;;;;;;;48.22;23.10;;;;;18.00;100504.00;;;;4819949;29;20078;-75
2021/09/28 06:38:50;;;;;;;51.42;22.80;;;;;17.90;100532.00;;;;4820283;29;20087;-77
2021/09/28 06:41:19;;;;;;;44.20;24.35;;;;;17.90;100513.00;;;;4818496;29;20073;-77
2021/09/28 06:43:49;;;;;;;49.15;24.60;;;;;18.00;100541.00;;;;4820079;29;20046;-77
2021/09/28 06:46:18;;;;;;;46.72;24.23;;;;;17.90;100535.00;;;;4819918;29;20101;-77
2021/09/28 06:48:48;;;;;;;42.35;24.05;;;;;17.90;100538.00;;;;4819601;29;20089;-76
2021/09/28 06:51:17;;;;;;;40.80;23.65;;;;;17.90;100529.00;;;;4820129;29;20066;-77
2021/09/28 06:53:48;;;;;;;45.30;23.90;;;;;17.90;100531.00;;;;4817743;29;20054;-76
2021/09/28 06:56:20;;;;;;;50.17;24.10;;;;;17.90;100541.00;;;;4819151;29;20065;-77
2021/09/28 06:58:51;;;;;;;;;;;;;17.90;100558.00;;;;4820239;29;20038;-76
2021/09/28 07:01:21;;;;;;;37.93;21.97;;;;;17.90;100550.00;;;;4820035;29;19960;-75
2021/09/28 07:03:51;;;;;;;38.38;21.02;;;;;17.90;100542.00;;;;4819790;29;20117;-76
2021/09/28 07:06:22;;;;;;;37.38;21.02;;;;;17.90;100541.00;;;;4819134;29;20051;-75
2021/09/28 07:08:51;;;;;;;32.97;19.20;;;;;17.90;100562.00;;;;4819503;29;20061;-77
2021/09/28 07:11:21;;;;;;;46.95;22.27;;;;;17.90;100551.00;;;;4819580;29;20059;-77
2021/09/28 07:13:51;;;;;;;35.63;19.75;;;;;17.90;100556.00;;;;4818884;29;20057;-77
2021/09/28 07:16:20;;;;;;;36.47;20.80;;;;;17.90;100541.00;;;;4819800;29;20535;-76
2021/09/28 07:18:49;;;;;;;42.10;21.23;;;;;17.90;100532.00;;;;4818949;29;20054;-76
2021/09/28 07:21:20;;;;;;;41.30;21.63;;;;;17.90;100503.00;;;;4819519;29;20050;-75
2021/09/28 07:23:50;;;;;;;38.03;20.73;;;;;17.80;100521.00;;;;4819329;29;20042;-75
2021/09/28 07:26:19;;;;;;;41.47;21.35;;;;;17.80;100511.00;;;;4818787;29;20058;-77
2021/09/28 07:28:50;;;;;;;42.28;22.67;;;;;17.80;100531.00;;;;4819380;29;20046;-76
2021/09/28 07:31:19;;;;;;;50.70;21.70;;;;;17.80;100543.00;;;;4818679;29;20137;-77
2021/09/28 07:33:49;;;;;;;42.25;22.38;;;;;17.80;100544.00;;;;4817986;29;20059;-77
2021/09/28 07:36:18;;;;;;;43.63;22.75;;;;;17.80;100556.00;;;;4819148;29;20043;-76
2021/09/28 07:38:48;;;;;;;46.97;24.05;;;;;17.80;100535.00;;;;4818849;29;20050;-77
2021/09/28 07:41:17;;;;;;;47.05;26.17;;;;;17.80;100532.00;;;;4818761;29;20111;-75
2021/09/28 07:43:47;;;;;;;48.90;24.75;;;;;17.80;100544.00;;;;4818943;29;20058;-77
2021/09/28 07:46:16;;;;;;;42.92;24.15;;;;;17.70;100528.00;;;;4819382;29;20110;-77
2021/09/28 07:48:46;;;;;;;51.97;25.63;;;;;17.70;100540.00;;;;4817522;29;20141;-75
2021/09/28 07:51:15;;;;;;;38.42;22.40;;;;;17.70;100534.00;;;;4819199;29;20400;-76
2021/09/28 07:53:49;;;;;;;38.00;22.58;;;;;17.70;100555.00;;;;4818672;29;20061;-77
2021/09/28 07:56:21;;;;;;;48.05;25.13;;;;;17.70;100549.00;;;;4802767;29;20104;-76
2021/09/28 07:58:51;;;;;;;46.33;25.67;;;;;17.70;100566.00;;;;4818799;29;20054;-76
2021/09/28 08:01:21;;;;;;;52.35;26.10;;;;;17.60;100555.00;;;;4817463;29;20070;-76
2021/09/28 08:03:52;;;;;;;55.08;26.02;;;;;17.60;100568.00;;;;4818480;29;20490;-77
2021/09/28 08:06:22;;;;;;;46.85;26.17;;;;;17.60;100583.00;;;;4818083;29;20061;-76
2021/09/28 08:08:52;;;;;;;62.78;27.65;;;;;17.60;100579.00;;;;4818887;29;20046;-76
2021/09/28 08:11:22;;;;;;;34.35;18.58;;;;;17.60;100588.00;;;;4818814;29;20074;-77
2021/09/28 08:13:51;;;;;;;56.13;26.27;;;;;17.60;100599.00;;;;4818672;29;20109;-77
2021/09/28 08:16:21;;;;;;;49.80;25.92;;;;;17.60;100608.00;;;;4816508;29;20062;-76
2021/09/28 08:18:50;;;;;;;58.13;28.77;;;;;17.60;100614.00;;;;4818060;29;20126;-75
2021/09/28 08:21:20;;;;;;;55.55;25.88;;;;;17.60;100608.00;;;;4818571;29;20046;-76
2021/09/28 08:23:49;;;;;;;46.38;25.88;;;;;17.60;100617.00;;;;4818786;29;20062;-76
2021/09/28 08:29:10;;;;;;;62.97;28.02;;;;;17.60;100580.00;;;;4817589;29;20137;-77
2021/09/28 08:31:46;;;;;;;50.67;23.92;;;;;17.60;100592.00;;;;4818538;29;20085;-77
2021/09/28 08:34:17;;;;;;;47.28;25.35;;;;;17.60;100588.00;;;;4818932;29;20053;-77
2021/09/28 08:36:47;;;;;;;53.75;25.70;;;;;17.60;100588.00;;;;4801897;29;20054;-76
2021/09/28 08:39:17;;;;;;;53.95;25.48;;;;;17.60;100571.00;;;;4817948;29;20502;-77
2021/09/28 08:41:51;;;;;;;65.20;25.30;;;;;17.60;100592.00;;;;4818570;29;20796;-77
2021/09/28 08:44:21;;;;;;;46.78;25.60;;;;;17.60;100599.00;;;;4801706;29;20058;-76
2021/09/28 08:46:51;;;;;;;57.13;26.65;;;;;17.60;100600.00;;;;4817646;29;20046;-76
2021/09/28 08:49:21;;;;;;;45.47;24.80;;;;;17.60;100596.00;;;;4818137;29;20134;-78
2021/09/28 08:51:52;;;;;;;58.92;25.27;;;;;17.60;100594.00;;;;4801661;29;20435;-76
2021/09/28 08:54:21;;;;;;;;;;;;;17.70;100601.00;;;;4818730;29;20046;-77
2021/09/28 08:56:51;;;;;;;45.75;23.08;;;;;17.70;100587.00;;;;4818492;29;19981;-77
2021/09/28 08:59:21;;;;;;;50.70;26.88;;;;;17.70;100560.00;;;;4818202;29;20046;-75
2021/09/28 09:02:01;;;;;;;;;;;;;17.70;100565.00;;;;4818498;29;20049;-76
2021/09/28 09:04:32;;;;;;;45.25;25.20;;;;;17.60;100555.00;;;;4818149;29;20371;-76
2021/09/28 09:07:19;;;;;;;51.03;25.27;;;;;17.60;100538.00;;;;4818278;29;20054;-76
2021/09/28 09:09:49;;;;;;;37.53;22.77;;;;;17.60;100557.00;;;;4817456;29;20100;-76
2021/09/28 09:12:31;;;;;;;44.75;24.77;;;;;17.60;100542.00;;;;4801691;29;20050;-76
2021/09/28 09:15:22;;;;;;;58.10;25.15;;;;;17.70;100538.00;;;;4817905;29;20129;-77
2021/09/28 09:17:53;;;;;;;;;;;;;17.80;100529.00;;;;4820037;29;20523;-76
2021/09/28 09:20:30;;;;;;;33.23;15.67;;;;;17.80;100521.00;;;;4821885;29;19961;-75
2021/09/28 09:23:15;;;;;;;77.13;26.75;;;;;17.80;100527.00;;;;4820981;29;20137;-76
2021/09/28 09:25:46;;;;;;;12.73;11.07;;;;;17.80;100523.00;;;;4821611;29;20050;-76
2021/09/28 09:28:32;;;;;;;45.92;21.88;;;;;17.90;100539.00;;;;4821141;29;20129;-77
2021/09/28 09:31:33;;;;;;;43.33;22.10;;;;;17.90;100555.00;;;;4821103;29;20046;-75
2021/09/28 09:34:15;;;;;;;35.33;19.13;;;;;17.80;100569.00;;;;4820782;29;20510;-76
2021/09/28 09:36:55;;;;;;;33.38;18.05;;;;;17.80;100556.00;;;;4820829;29;20054;-77
2021/09/28 09:39:26;;;;;;;35.00;19.60;;;;;17.80;100547.00;;;;4820469;29;20514;-77
2021/09/28 09:42:06;;;;;;;35.95;18.85;;;;;17.80;100555.00;;;;4820324;29;20054;-76
2021/09/28 09:44:36;;;;;;;31.55;17.15;;;;;17.80;100566.00;;;;4820130;29;20061;-77
2021/09/28 09:47:06;;;;;;;37.65;18.77;;;;;17.80;100565.00;;;;4803939;29;20046;-76
2021/09/28 09:49:36;;;;;;;34.53;20.00;;;;;17.80;100574.00;;;;4820202;29;20057;-77
2021/09/28 09:52:10;;;;;;;39.25;19.30;;;;;17.80;100565.00;;;;4820318;29;20054;-76
2021/09/28 09:54:42;;;;;;;40.08;19.58;;;;;17.80;100553.00;;;;4820203;29;20050;-78
2021/09/28 09:57:14;;;;;;;40.00;19.95;;;;;17.90;100564.00;;;;4820162;29;20464;-76
2021/09/28 09:59:48;;;;;;;42.42;23.85;;;;;18.00;100557.00;;;;4819373;29;20129;-76
2021/09/28 10:02:17;;;;;;;49.25;23.83;;;;;18.00;100539.00;;;;4818732;29;20600;-77
2021/09/28 10:04:47;;;;;;;44.60;22.33;;;;;18.10;100529.00;;;;4819682;29;20061;-77
2021/09/28 10:07:17;;;;;;;39.55;21.10;;;;;18.00;100547.00;;;;4820623;29;20119;-78
2021/09/28 10:09:47;;;;;;;30.27;17.88;;;;;18.10;100541.00;;;;4820298;29;20046;-76
2021/09/28 10:12:20;;;;;;;39.92;22.08;;;;;18.00;100580.00;;;;4820235;29;20526;-77
2021/09/28 10:14:50;;;;;;;;;;;;;18.00;100592.00;;;;4820469;29;20539;-76
2021/09/28 10:17:31;;;;;;;30.25;15.02;;;;;17.90;100574.00;;;;4819805;29;20417;-76
2021/09/28 10:20:04;;;;;;;33.93;18.80;;;;;17.90;100564.00;;;;4820447;29;20054;-77
2021/09/28 10:22:36;;;;;;;16.65;9.75;;;;;17.90;100576.00;;;;4820301;29;20113;-76
2021/09/28 10:25:21;;;;;;;21.95;14.93;;;;;17.80;100571.00;;;;4819690;29;20453;-75
2021/09/28 10:27:52;;;;;;;27.90;14.80;;;;;17.80;100565.00;;;;4819426;29;20483;-77
2021/09/28 10:30:38;;;;;;;43.50;21.40;;;;;17.80;100552.00;;;;4829651;29;20038;-77
2021/09/28 10:33:26;;;;;;;8.02;4.53;;;;;17.90;100543.00;;;;4845331;29;20038;-77
2021/09/28 10:36:14;;;;;;;24.08;14.10;;;;;17.90;100559.00;;;;4834319;29;20154;-77
2021/09/28 10:39:02;;;;;;;30.88;15.43;;;;;17.90;100539.00;;;;4818240;29;20104;-77
2021/09/28 10:41:42;;;;;;;30.98;14.05;;;;;17.90;100556.00;;;;4811059;29;20427;-76
2021/09/28 10:44:36;;;;;;;15.80;9.48;;;;;17.90;100561.00;;;;4801702;29;20430;-77
2021/09/28 10:47:06;;;;;;;6.55;3.85;;;;;17.90;100540.00;;;;4802142;29;20065;-77
2021/09/28 10:49:37;;;;;;;0.40;0.40;;;;;17.90;100556.00;;;;4802084;29;20065;-76
2021/09/28 10:52:22;;;;;;;0.10;0.10;;;;;18.00;100564.00;;;;4802255;29;20059;-77
2021/09/28 10:55:10;;;;;;;11.05;5.30;;;;;18.20;100596.00;;;;4801737;29;20078;-77
2021/09/28 10:58:14;;;;;;;8.93;4.63;;;;;18.30;100597.00;;;;4801359;29;20803;-76
2021/09/28 11:00:56;;;;;;;17.33;7.82;;;;;18.30;100611.00;;;;4801196;29;20043;-76
2021/09/28 11:03:51;;;;;;;5.30;3.92;;;;;18.30;100610.00;;;;4801556;29;20721;-76
2021/09/28 11:06:45;;;;;;;46.47;19.63;;;;;18.20;100613.00;;;;4799989;29;20511;-77
2021/09/28 11:09:21;;;;;;;1.58;1.05;;;;;18.20;100608.00;;;;4801336;29;20066;-76
2021/09/28 11:11:57;;;;;;;5.95;5.45;;;;;18.20;100596.00;;;;4801598;29;20511;-77
2021/09/28 11:14:26;;;;;;;15.30;5.15;;;;;18.10;100588.00;;;;4801003;29;20531;-76
2021/09/28 11:16:56;;;;;;;3.03;2.47;;;;;18.10;100594.00;;;;4801734;29;20046;-76
2021/09/28 11:19:38;;;;;;;9.53;6.33;;;;;18.30;100606.00;;;;4801053;29;20046;-76
2021/09/28 11:22:11;;;;;;;766.00;213.73;;;;;18.40;100601.00;;;;4800854;29;20288;-75
2021/09/28 11:24:41;;;;;;;15.35;11.02;;;;;18.40;100596.00;;;;4801315;29;20043;-75
2021/09/28 11:27:10;;;;;;;18.55;10.60;;;;;18.50;100605.00;;;;4800976;29;20057;-75
2021/09/28 11:29:41;;;;;;;17.80;10.90;;;;;18.50;100593.00;;;;4800834;29;20059;-75
2021/09/28 11:32:12;;;;;;;19.13;10.50;;;;;18.60;100597.00;;;;4784348;29;20063;-76
2021/09/28 11:34:43;;;;;;;19.00;11.30;;;;;18.70;100586.00;;;;4801159;29;20073;-75
2021/09/28 11:37:22;;;;;;;37.03;21.00;;;;;18.70;100574.00;;;;4801303;29;20046;-76
2021/09/28 11:39:52;;;;;;;18.27;16.52;;;;;18.80;100562.00;;;;4800329;29;20496;-76
2021/09/28 11:42:24;;;;;;;39.40;23.30;;;;;18.90;100559.00;;;;4815093;29;20078;-75
2021/09/28 11:44:55;;;;;;;34.20;18.77;;;;;18.80;100559.00;;;;4818515;29;20147;-76
2021/09/28 11:47:27;;;;;;;1.88;1.45;;;;;18.90;100568.00;;;;4818896;29;20050;-76
2021/09/28 11:50:01;;;;;;;6.72;3.60;;;;;18.90;100548.00;;;;4818668;29;20050;-76
2021/09/28 11:52:34;;;;;;;0.30;0.30;;;;;18.90;100562.00;;;;4818872;29;20045;-75
2021/09/28 11:55:06;;;;;;;7.07;4.53;;;;;19.00;100572.00;;;;4818682;29;20057;-75
2021/09/28 11:57:36;;;;;;;8.65;5.18;;;;;19.00;100564.00;;;;4802377;29;20057;-76
2021/09/28 12:00:06;;;;;;;16.10;10.93;;;;;18.80;100586.00;;;;4802039;29;20054;-76
2021/09/28 12:02:41;;;;;;;33.50;17.50;;;;;18.80;100571.00;;;;4817554;29;20057;-75
2021/09/28 12:05:26;;;;;;;30.17;17.95;;;;;18.90;100575.00;;;;4817837;29;20070;-76
2021/09/28 12:08:00;;;;;;;33.90;18.55;;;;;18.90;100595.00;;;;4818418;29;20047;-77
2021/09/28 12:10:37;;;;;;;40.67;17.13;;;;;18.80;100579.00;;;;4818773;29;20058;-76
2021/09/28 12:13:21;;;;;;;35.50;17.33;;;;;18.90;100581.00;;;;4818656;29;20046;-75
2021/09/28 12:16:06;;;;;;;32.88;17.40;;;;;18.90;100606.00;;;;4818213;29;20107;-76
2021/09/28 12:18:37;;;;;;;31.85;14.45;;;;;18.90;100590.00;;;;4818498;29;20069;-76